createdAt,value
2022-10-23T00:00:04.131Z,14.30
2022-10-23T00:02:53.883Z,14.30
2022-10-23T00:05:41.479Z,14.30
2022-10-23T00:08:29.087Z,14.30
2022-10-23T00:11:23.140Z,14.40
2022-10-23T00:14:10.181Z,14.30
2022-10-23T00:16:55.776Z,14.30
2022-10-23T00:19:41.362Z,14.30
2022-10-23T00:22:27.250Z,14.30
2022-10-23T00:25:13.292Z,14.30
2022-10-23T00:28:00.532Z,14.30
2022-10-23T00:30:46.625Z,14.30
2022-10-23T00:33:37.254Z,14.30
2022-10-23T00:36:23.341Z,14.20
2022-10-23T00:39:10.837Z,14.20
2022-10-23T00:41:57.026Z,14.20
2022-10-23T00:44:44.240Z,14.10
2022-10-23T00:47:29.973Z,14.10
2022-10-23T00:50:16.517Z,14.10
2022-10-23T00:53:04.893Z,14.10
2022-10-23T00:55:53.873Z,14.10
2022-10-23T00:58:39.310Z,14.10
2022-10-23T01:01:25.142Z,14.10
2022-10-23T01:04:11.661Z,14.20
2022-10-23T01:07:07.145Z,14.10
2022-10-23T01:10:01.178Z,14.10
2022-10-23T01:12:51.052Z,14.10
2022-10-23T01:15:49.286Z,14.00
2022-10-23T01:18:56.323Z,14.00
2022-10-23T01:21:50.497Z,14.00
2022-10-23T01:24:56.654Z,14.00
2022-10-23T01:27:51.011Z,14.00
2022-10-23T01:30:42.956Z,13.90
2022-10-23T01:33:38.011Z,13.90
2022-10-23T01:36:27.702Z,13.90
2022-10-23T01:39:24.418Z,13.80
2022-10-23T01:42:19.288Z,13.80
2022-10-23T01:45:28.906Z,13.80
2022-10-23T01:48:19.209Z,13.70
2022-10-23T01:51:09.733Z,13.70
2022-10-23T01:53:59.239Z,13.70
2022-10-23T01:56:48.562Z,13.70
2022-10-23T01:59:38.663Z,13.70
2022-10-23T02:02:28.067Z,13.70
2022-10-23T02:05:28.983Z,13.70
2022-10-23T02:08:16.003Z,13.70
2022-10-23T02:11:08.790Z,13.70
2022-10-23T02:14:09.174Z,13.70
2022-10-23T02:16:57.428Z,13.70
2022-10-23T02:19:50.792Z,13.70
2022-10-23T02:22:49.842Z,13.70
2022-10-23T02:26:01.468Z,13.60
2022-10-23T02:28:52.270Z,13.70
2022-10-23T02:31:39.090Z,13.70
2022-10-23T02:34:24.816Z,13.50
2022-10-23T02:37:13.546Z,13.60
2022-10-23T02:40:00.502Z,13.60
2022-10-23T02:43:28.323Z,13.50
2022-10-23T02:46:55.985Z,13.50
2022-10-23T02:49:59.616Z,13.50
2022-10-23T02:53:15.157Z,13.50
2022-10-23T02:56:23.615Z,13.50
2022-10-23T02:59:34.160Z,13.50
2022-10-23T03:02:51.702Z,13.50
2022-10-23T03:05:40.659Z,13.50
2022-10-23T03:08:26.568Z,13.50
2022-10-23T03:11:12.397Z,13.50
2022-10-23T03:13:58.012Z,13.50
2022-10-23T03:16:43.774Z,13.50
2022-10-23T03:19:29.246Z,13.50
2022-10-23T03:22:15.172Z,13.50
2022-10-23T03:25:00.648Z,13.50
2022-10-23T03:27:48.561Z,13.50
2022-10-23T03:30:35.890Z,13.50
2022-10-23T03:33:21.540Z,13.40
2022-10-23T03:36:07.594Z,13.40
2022-10-23T03:38:53.615Z,13.40
2022-10-23T03:41:40.165Z,13.40
2022-10-23T03:44:26.462Z,13.40
2022-10-23T03:47:12.194Z,13.30
2022-10-23T03:49:58.145Z,13.30
2022-10-23T03:52:44.088Z,13.20
2022-10-23T03:55:31.656Z,13.20
2022-10-23T03:58:17.737Z,13.20
2022-10-23T04:01:03.976Z,13.20
2022-10-23T04:03:49.490Z,13.30
2022-10-23T04:06:35.446Z,13.20
2022-10-23T04:09:21.777Z,13.20
2022-10-23T04:12:07.852Z,13.20
2022-10-23T04:14:53.600Z,13.20
2022-10-23T04:17:40.534Z,13.20
2022-10-23T04:20:26.363Z,13.10
2022-10-23T04:23:11.910Z,13.10
2022-10-23T04:26:00.239Z,13.10
2022-10-23T04:28:45.897Z,13.10
2022-10-23T04:31:31.887Z,13.10
2022-10-23T04:34:18.980Z,13.20
2022-10-23T04:37:04.768Z,13.10
2022-10-23T04:39:50.416Z,13.10
2022-10-23T04:42:35.725Z,13.10
2022-10-23T04:45:22.089Z,13.10
2022-10-23T04:48:07.908Z,13.10
2022-10-23T04:51:25.330Z,13.10
2022-10-23T04:54:15.258Z,13.10
2022-10-23T04:57:01.076Z,13.10
2022-10-23T04:59:55.156Z,13.10
2022-10-23T05:02:40.814Z,13.00
2022-10-23T05:05:26.573Z,13.00
2022-10-23T05:08:15.552Z,13.00
2022-10-23T05:11:22.673Z,12.90
2022-10-23T05:14:10.368Z,12.80
2022-10-23T05:17:04.866Z,12.80
2022-10-23T05:19:55.970Z,12.80
2022-10-23T05:22:43.879Z,12.80
2022-10-23T05:25:31.065Z,12.70
2022-10-23T05:28:30.602Z,12.80
2022-10-23T05:31:17.905Z,12.70
2022-10-23T05:34:09.909Z,12.80
2022-10-23T05:37:03.557Z,12.70
2022-10-23T05:39:53.694Z,12.60
2022-10-23T05:42:41.596Z,12.60
2022-10-23T05:45:28.801Z,12.60
2022-10-23T05:48:35.521Z,12.50
2022-10-23T05:51:27.449Z,12.50
2022-10-23T05:54:20.347Z,12.50
2022-10-23T05:57:18.494Z,12.50
2022-10-23T06:00:08.872Z,12.50
2022-10-23T06:03:01.326Z,12.40
2022-10-23T06:05:57.245Z,12.50
2022-10-23T06:08:52.121Z,12.40
2022-10-23T06:11:40.016Z,12.50
2022-10-23T06:14:30.913Z,12.50
2022-10-23T06:17:16.969Z,12.50
2022-10-23T06:20:05.539Z,12.50
2022-10-23T06:22:55.196Z,12.40
2022-10-23T06:26:00.967Z,12.40
2022-10-23T06:28:56.816Z,12.40
2022-10-23T06:31:42.337Z,12.30
2022-10-23T06:34:27.856Z,12.30
2022-10-23T06:37:13.419Z,12.30
2022-10-23T06:40:06.334Z,12.20
2022-10-23T06:43:06.575Z,12.20
2022-10-23T06:46:07.541Z,12.40
2022-10-23T06:49:12.102Z,12.40
2022-10-23T06:52:04.842Z,12.20
2022-10-23T06:54:50.523Z,12.30
2022-10-23T06:57:39.520Z,12.40
2022-10-23T07:00:25.825Z,12.50
2022-10-23T07:03:12.190Z,12.50
2022-10-23T07:06:04.194Z,12.60
2022-10-23T07:08:50.153Z,12.60
2022-10-23T07:11:55.545Z,12.70
2022-10-23T07:14:49.544Z,12.90
2022-10-23T07:17:35.152Z,13.00
2022-10-23T07:20:22.187Z,13.10
2022-10-23T07:23:11.080Z,13.30
2022-10-23T07:26:06.234Z,13.40
2022-10-23T07:28:55.233Z,13.50
2022-10-23T07:31:43.042Z,13.60
2022-10-23T07:35:03.810Z,13.70
2022-10-23T07:37:52.511Z,13.70
2022-10-23T07:40:38.991Z,13.80
2022-10-23T07:43:27.662Z,13.90
2022-10-23T07:46:13.143Z,13.90
2022-10-23T07:48:58.612Z,14.00
2022-10-23T07:51:48.967Z,14.00
2022-10-23T07:54:37.025Z,14.10
2022-10-23T07:57:35.264Z,14.20
2022-10-23T08:00:40.541Z,14.30
2022-10-23T08:03:36.707Z,14.40
2022-10-23T08:06:22.247Z,14.50
2022-10-23T08:09:08.787Z,14.70
2022-10-23T08:11:57.304Z,14.90
2022-10-23T08:14:45.312Z,14.90
2022-10-23T08:17:31.698Z,15.00
2022-10-23T08:20:34.292Z,15.00
2022-10-23T08:23:20.607Z,15.10
2022-10-23T08:26:08.235Z,15.30
2022-10-23T08:28:53.704Z,15.40
2022-10-23T08:31:40.623Z,15.60
2022-10-23T08:34:46.357Z,15.80
2022-10-23T08:37:32.239Z,16.00
2022-10-23T08:40:22.575Z,16.20
2022-10-23T08:43:39.017Z,16.40
2022-10-23T08:46:44.228Z,16.50
2022-10-23T08:50:03.389Z,16.70
2022-10-23T08:53:11.437Z,16.90
2022-10-23T08:56:07.064Z,17.00
2022-10-23T08:59:24.944Z,17.20
2022-10-23T09:02:19.139Z,17.40
2022-10-23T09:05:11.720Z,17.50
2022-10-23T09:08:28.902Z,17.50
2022-10-23T09:11:20.958Z,17.70
2022-10-23T09:14:40.585Z,17.90
2022-10-23T09:17:28.857Z,18.00
2022-10-23T09:20:25.740Z,18.00
2022-10-23T09:23:18.477Z,18.00
2022-10-23T09:26:15.063Z,18.00
2022-10-23T09:29:18.874Z,18.20
2022-10-23T09:32:07.071Z,18.30
2022-10-23T09:34:55.047Z,18.40
2022-10-23T09:37:48.437Z,18.60
2022-10-23T09:40:51.923Z,18.80
2022-10-23T09:43:37.806Z,18.90
2022-10-23T09:46:44.672Z,19.00
2022-10-23T09:49:33.694Z,19.00
2022-10-23T09:52:19.905Z,19.20
2022-10-23T09:55:25.194Z,19.20
2022-10-23T09:58:24.975Z,19.20
2022-10-23T10:01:24.366Z,19.30
2022-10-23T10:04:12.857Z,19.40
2022-10-23T10:06:59.464Z,19.50
2022-10-23T10:09:45.110Z,19.50
2022-10-23T10:12:51.204Z,19.50
2022-10-23T10:15:58.248Z,19.60
2022-10-23T10:18:47.536Z,19.70
2022-10-23T10:21:57.436Z,19.80
2022-10-23T10:25:03.182Z,20.00
2022-10-23T10:27:56.111Z,20.10
2022-10-23T10:30:50.982Z,20.20
2022-10-23T10:33:49.471Z,20.40
2022-10-23T10:36:48.124Z,20.50
2022-10-23T10:39:44.484Z,20.70
2022-10-23T10:43:22.654Z,20.80
2022-10-23T10:46:37.611Z,20.90
2022-10-23T10:49:23.627Z,20.90
2022-10-23T10:52:38.845Z,21.00
2022-10-23T10:55:29.649Z,21.00
2022-10-23T10:58:35.770Z,21.00
2022-10-23T11:01:55.113Z,21.00
2022-10-23T11:05:01.204Z,21.10
2022-10-23T11:08:07.264Z,21.00
2022-10-23T11:10:56.958Z,21.10
2022-10-23T11:13:44.401Z,21.20
2022-10-23T11:16:36.060Z,21.30
2022-10-23T11:19:25.640Z,21.30
2022-10-23T11:22:30.122Z,21.30
2022-10-23T11:25:56.607Z,21.40
2022-10-23T11:29:03.467Z,21.40
2022-10-23T11:32:44.625Z,21.30
2022-10-23T11:35:48.255Z,21.50
2022-10-23T11:38:40.153Z,21.50
2022-10-23T11:41:33.849Z,21.60
2022-10-23T11:44:44.685Z,21.50
2022-10-23T11:47:40.076Z,21.40
2022-10-23T11:50:50.720Z,21.40
2022-10-23T11:53:36.665Z,21.60
2022-10-23T11:56:27.610Z,21.90
2022-10-23T11:59:37.861Z,22.60
2022-10-23T12:02:38.676Z,23.20
2022-10-23T12:05:30.066Z,24.90
2022-10-23T12:08:22.551Z,27.10
2022-10-23T12:11:42.323Z,29.60
2022-10-23T12:14:29.409Z,31.50
2022-10-23T12:17:36.901Z,32.60
2022-10-23T12:20:48.141Z,33.40
2022-10-23T12:23:52.492Z,34.20
2022-10-23T12:27:19.936Z,34.80
2022-10-23T12:30:36.305Z,35.30
2022-10-23T12:33:33.960Z,35.10
2022-10-23T12:36:44.575Z,34.80
2022-10-23T12:39:32.653Z,35.20
2022-10-23T12:42:27.053Z,35.40
2022-10-23T12:45:19.872Z,35.30
2022-10-23T12:48:06.048Z,34.90
2022-10-23T12:50:54.560Z,34.80
2022-10-23T12:53:40.349Z,34.30
2022-10-23T12:56:29.445Z,32.90
2022-10-23T12:59:36.255Z,31.40
2022-10-23T13:02:26.061Z,30.30
2022-10-23T13:05:19.045Z,29.90
2022-10-23T13:08:06.347Z,29.50
2022-10-23T13:11:05.689Z,29.00
2022-10-23T13:13:54.867Z,28.90
2022-10-23T13:16:40.738Z,28.10
2022-10-23T13:19:27.508Z,27.50
2022-10-23T13:22:21.572Z,27.00
2022-10-23T13:25:29.681Z,26.50
2022-10-23T13:28:19.018Z,26.60
2022-10-23T13:31:23.124Z,26.90
2022-10-23T13:34:19.736Z,27.90
2022-10-23T13:37:26.647Z,28.10
2022-10-23T13:40:25.850Z,27.60
2022-10-23T13:43:18.888Z,26.90
2022-10-23T13:46:04.520Z,27.40
2022-10-23T13:48:51.229Z,28.20
2022-10-23T13:51:51.868Z,28.60
2022-10-23T13:54:37.557Z,28.10
2022-10-23T13:57:23.148Z,27.50
2022-10-23T14:00:09.481Z,26.70
2022-10-23T14:02:57.236Z,26.60
2022-10-23T14:05:42.963Z,27.30
2022-10-23T14:08:28.478Z,28.10
2022-10-23T14:11:16.080Z,28.40
2022-10-23T14:14:02.286Z,28.00
2022-10-23T14:16:47.750Z,27.40
2022-10-23T14:19:34.181Z,26.90
2022-10-23T14:22:20.099Z,26.70
2022-10-23T14:25:06.433Z,27.10
2022-10-23T14:27:52.014Z,27.70
2022-10-23T14:30:37.736Z,28.00
2022-10-23T14:33:24.464Z,27.70
2022-10-23T14:36:10.710Z,27.10
2022-10-23T14:38:57.834Z,26.50
2022-10-23T14:41:43.344Z,26.10
2022-10-23T14:44:28.838Z,25.80
2022-10-23T14:47:14.251Z,25.50
2022-10-23T14:49:59.920Z,25.40
2022-10-23T14:52:45.516Z,25.10
2022-10-23T14:55:31.006Z,24.90
2022-10-23T14:58:16.549Z,24.60
2022-10-23T15:01:02.535Z,24.50
2022-10-23T15:03:54.592Z,24.50
2022-10-23T15:06:40.519Z,24.40
2022-10-23T15:09:26.461Z,24.30
2022-10-23T15:12:12.135Z,24.20
2022-10-23T15:14:57.752Z,24.00
2022-10-23T15:17:43.763Z,23.90
2022-10-23T15:20:29.754Z,23.90
2022-10-23T15:23:15.422Z,23.70
2022-10-23T15:26:06.457Z,23.70
2022-10-23T15:28:56.632Z,23.70
2022-10-23T15:31:44.909Z,23.60
2022-10-23T15:34:32.432Z,23.60
2022-10-23T15:37:17.952Z,23.40
2022-10-23T15:40:03.983Z,23.20
2022-10-23T15:42:50.164Z,23.10
2022-10-23T15:45:35.955Z,22.90
2022-10-23T15:48:21.624Z,22.80
2022-10-23T15:51:07.156Z,22.70
2022-10-23T15:53:52.736Z,22.60
2022-10-23T15:56:38.467Z,22.50
2022-10-23T15:59:25.572Z,22.50
2022-10-23T16:02:12.690Z,22.40
2022-10-23T16:04:58.539Z,22.30
2022-10-23T16:07:44.671Z,22.20
2022-10-23T16:10:30.545Z,22.20
2022-10-23T16:13:16.152Z,22.20
2022-10-23T16:16:04.994Z,22.10
2022-10-23T16:18:50.588Z,22.00
2022-10-23T16:21:37.354Z,21.90
2022-10-23T16:24:22.830Z,21.90
2022-10-23T16:27:08.452Z,21.80
2022-10-23T16:29:54.262Z,21.80
2022-10-23T16:32:41.270Z,21.60
2022-10-23T16:35:26.848Z,21.50
2022-10-23T16:38:24.187Z,21.50
2022-10-23T16:41:10.517Z,21.50
2022-10-23T16:44:04.539Z,21.40
2022-10-23T16:47:00.342Z,21.30
2022-10-23T16:49:45.911Z,21.30
2022-10-23T16:52:31.315Z,21.10
2022-10-23T16:55:16.942Z,20.90
2022-10-23T16:58:02.859Z,20.70
2022-10-23T17:00:57.563Z,20.60
2022-10-23T17:03:47.761Z,20.60
2022-10-23T17:06:33.555Z,20.50
2022-10-23T17:09:19.409Z,20.40
2022-10-23T17:12:06.021Z,20.30
2022-10-23T17:14:51.306Z,20.40
2022-10-23T17:17:37.018Z,20.50
2022-10-23T17:20:22.382Z,20.50
2022-10-23T17:23:08.036Z,20.40
2022-10-23T17:25:54.234Z,20.40
2022-10-23T17:28:42.218Z,20.50
2022-10-23T17:31:31.110Z,20.50
2022-10-23T17:34:20.777Z,20.60
2022-10-23T17:37:06.324Z,20.70
2022-10-23T17:39:51.797Z,20.60
2022-10-23T17:42:37.421Z,20.60
2022-10-23T17:45:23.069Z,20.60
2022-10-23T17:48:08.759Z,20.60
2022-10-23T17:51:16.262Z,20.70
2022-10-23T17:54:06.699Z,20.70
2022-10-23T17:56:52.435Z,20.80
2022-10-23T17:59:39.107Z,20.80
2022-10-23T18:02:24.844Z,20.90
2022-10-23T18:05:11.258Z,21.00
2022-10-23T18:07:56.907Z,21.10
2022-10-23T18:10:42.445Z,21.10
2022-10-23T18:13:28.086Z,21.10
2022-10-23T18:16:14.330Z,21.10
2022-10-23T18:19:01.789Z,21.20
2022-10-23T18:21:47.902Z,21.20
2022-10-23T18:24:33.435Z,21.60
2022-10-23T18:27:19.025Z,21.10
2022-10-23T18:30:04.951Z,21.10
2022-10-23T18:32:50.680Z,21.00
2022-10-23T18:35:36.588Z,20.90
2022-10-23T18:38:22.386Z,20.80
2022-10-23T18:41:07.976Z,20.70
2022-10-23T18:43:54.653Z,20.70
2022-10-23T18:46:40.663Z,20.70
2022-10-23T18:49:26.898Z,20.80
2022-10-23T18:52:12.807Z,20.90
2022-10-23T18:54:58.662Z,21.00
2022-10-23T18:57:44.483Z,21.10
2022-10-23T19:00:30.365Z,21.20
2022-10-23T19:03:16.229Z,21.10
2022-10-23T19:06:01.797Z,21.10
2022-10-23T19:08:47.841Z,21.10
2022-10-23T19:11:33.868Z,21.10
2022-10-23T19:14:19.623Z,21.10
2022-10-23T19:17:19.515Z,21.10
2022-10-23T19:20:14.827Z,21.10
2022-10-23T19:23:01.731Z,21.10
2022-10-23T19:25:48.224Z,21.00
2022-10-23T19:28:37.576Z,21.00
2022-10-23T19:31:27.104Z,21.00
2022-10-23T19:34:12.753Z,21.10
2022-10-23T19:36:58.198Z,21.10
2022-10-23T19:39:44.089Z,21.10
2022-10-23T19:42:29.379Z,21.10
2022-10-23T19:45:15.642Z,21.10
2022-10-23T19:48:00.907Z,21.10
2022-10-23T19:50:46.500Z,21.10
2022-10-23T19:53:32.173Z,21.00
2022-10-23T19:56:17.864Z,21.00
2022-10-23T19:59:04.285Z,21.00
2022-10-23T20:01:50.102Z,21.10
2022-10-23T20:04:35.818Z,21.00
2022-10-23T20:07:22.288Z,21.00
2022-10-23T20:10:08.759Z,21.60
2022-10-23T20:13:02.350Z,21.00
2022-10-23T20:16:00.204Z,21.00
2022-10-23T20:18:46.396Z,21.00
2022-10-23T20:21:32.184Z,21.00
2022-10-23T20:24:19.335Z,21.00
2022-10-23T20:27:04.882Z,21.10
2022-10-23T20:29:50.769Z,21.00
2022-10-23T20:32:36.195Z,21.10
2022-10-23T20:35:21.782Z,21.20
2022-10-23T20:38:08.145Z,21.20
2022-10-23T20:41:00.449Z,21.30
2022-10-23T20:43:46.651Z,21.40
2022-10-23T20:46:32.734Z,21.50
2022-10-23T20:49:19.215Z,21.60
2022-10-23T20:52:04.916Z,21.70
2022-10-23T20:54:50.263Z,21.80
2022-10-23T20:57:35.921Z,21.90
2022-10-23T21:00:21.579Z,21.80
2022-10-23T21:03:07.484Z,21.80
2022-10-23T21:05:52.954Z,21.90
2022-10-23T21:08:38.883Z,21.90
2022-10-23T21:11:25.287Z,22.00
2022-10-23T21:14:10.892Z,22.00
2022-10-23T21:16:56.365Z,22.00
2022-10-23T21:19:41.798Z,22.00
2022-10-23T21:22:27.416Z,22.00
2022-10-23T21:25:12.958Z,22.00
2022-10-23T21:27:58.435Z,22.00
2022-10-23T21:30:43.941Z,22.00
2022-10-23T21:33:29.766Z,22.00
2022-10-23T21:36:19.320Z,22.00
2022-10-23T21:39:05.117Z,22.00
2022-10-23T21:41:50.509Z,22.00
2022-10-23T21:44:36.308Z,22.00
2022-10-23T21:47:21.842Z,21.90
2022-10-23T21:50:07.837Z,21.90
2022-10-23T21:52:53.953Z,21.80
2022-10-23T21:55:39.982Z,21.90
2022-10-23T21:58:25.567Z,21.90
2022-10-23T22:01:11.319Z,21.80
2022-10-23T22:03:56.926Z,21.80
2022-10-23T22:06:44.113Z,21.70
2022-10-23T22:09:29.593Z,21.70
2022-10-23T22:12:15.184Z,21.70
2022-10-23T22:15:01.008Z,21.70
2022-10-23T22:17:46.740Z,21.70
2022-10-23T22:20:32.546Z,21.60
2022-10-23T22:23:18.230Z,21.70
2022-10-23T22:26:09.987Z,21.60
2022-10-23T22:28:57.746Z,21.50
2022-10-23T22:31:45.778Z,21.50
2022-10-23T22:37:41.136Z,21.50
2022-10-23T22:40:26.669Z,21.40
2022-10-23T22:43:12.157Z,21.50
2022-10-23T22:46:21.744Z,21.50
2022-10-23T22:49:07.990Z,21.50
2022-10-23T22:51:53.562Z,21.50
2022-10-23T22:54:39.085Z,21.50
2022-10-23T23:00:10.600Z,21.50
2022-10-23T23:02:59.276Z,21.50
2022-10-23T23:05:47.304Z,21.50
2022-10-23T23:08:34.202Z,21.40
2022-10-23T23:11:21.534Z,21.30
2022-10-23T23:16:57.605Z,21.30
2022-10-23T23:19:43.160Z,21.30
2022-10-23T23:22:28.724Z,21.30
2022-10-23T23:25:14.543Z,21.30
2022-10-23T23:28:00.498Z,21.30
2022-10-23T23:30:47.265Z,21.30
2022-10-23T23:33:32.802Z,21.20
2022-10-23T23:36:20.998Z,21.10
2022-10-23T23:39:06.898Z,20.90
2022-10-23T23:41:52.758Z,20.70
2022-10-23T23:44:45.762Z,20.50
2022-10-23T23:47:41.703Z,20.40
2022-10-23T23:50:28.031Z,20.30
2022-10-23T23:53:13.513Z,20.10
2022-10-23T23:55:59.483Z,20.00
2022-10-23T23:58:45.305Z,19.80
